Aérodrome :
LOGIN :

S'inscrire | Disclaimer

   EN    FR    IT 

 










Légende :    VFR   VFR Marginal   IFR   IFR Intensif   IFR Très Intensif
Visi : 
Plafond : 
>= 8 km
>= 3000ft
5 à 8 km
1000 à 3000 ft
1500m à 5 km
500 à 1000 ft
800 à 1500m
200 à 500 ft
< 800m
< 200 ft
Symboles :   Orages  Brouillard  Fortes neiges  Fortes précipitations  Vent > 20 kt
SIGMETs :   Divers  Orages  Givrage  Turbulence  Onde Orograph.  Cendres Volcan.







- Altitude de l'aérodrome : 456 ft
- Code IATA : QPZ


LIMS - San Damiano Air Base Piacenza

DERNIER METAR :
  • 121555Z 21002KT 9999 BKN070 05/02 Q1017

METARs EXPIRÉS :
  • 121455Z 08002KT 9999 SCT070 08/M02 Q1018
  • 121355Z 11004KT 9999 BKN070 08/M02 Q1018 RMK BKN VIS MIN 9999 WIND THR30 09003KT BLU

Prévision TAF périmée.
Pas de NOTAMs connus pour ce terrain.
1 SIGMET publié pour la FIR Milano (LIMM) :
 
Givrage fort
LIMM SIGMET 2 VALID 121445/121700 LIIP
LIMM MILANO FIR SEV ICE OBS WI N4340 E01047 - N4440 E01044 - N4421 E01153 - N4336 E01218 - N4340 E01047 FL060/080 STNR NC=



MET'MAP, la Météo Aéronautique d'un coup d'oeil ! - Copyright ORBIFLY Décembre 2007 - Disclaimer

ORBIFLY MET'MAP TEAM :

Programmation & Développement : Alexandra Zaïnal
Conception & Développement : Baudouin d'Aumeries
Co-Programmation & Développement : Marc-Olivier Méhu
Soutien technique & logistique : Manuel Goepfert

Contact : metmap@orbifly.com




SOURCES & CREDITS :

   NOAA